createdAt,value
2023-11-08T00:01:38.503Z,12.50
2023-11-08T00:04:05.568Z,13.00
2023-11-08T00:06:34.392Z,14.50
2023-11-08T00:09:01.154Z,8.25
2023-11-08T00:11:27.809Z,6.75
2023-11-08T00:13:56.278Z,7.00
2023-11-08T00:16:23.880Z,7.50
2023-11-08T00:18:51.095Z,8.50
2023-11-08T00:21:18.014Z,5.25
2023-11-08T00:23:44.756Z,7.75
2023-11-08T00:26:13.001Z,5.75
2023-11-08T00:28:40.440Z,7.50
2023-11-08T00:31:08.305Z,8.25
2023-11-08T00:33:34.934Z,7.50
2023-11-08T00:36:01.604Z,8.25
2023-11-08T00:38:28.210Z,9.00
2023-11-08T00:40:54.984Z,8.50
2023-11-08T00:43:21.706Z,9.00
2023-11-08T00:45:48.402Z,10.00
2023-11-08T00:48:15.137Z,7.25
2023-11-08T00:50:41.860Z,5.25
2023-11-08T00:53:12.080Z,8.50
2023-11-08T00:55:39.852Z,9.50
2023-11-08T00:58:06.460Z,13.00
2023-11-08T01:00:33.112Z,10.50
2023-11-08T01:03:00.597Z,8.25
2023-11-08T01:05:28.001Z,14.75
2023-11-08T01:07:55.225Z,17.75
2023-11-08T01:10:22.654Z,14.75
2023-11-08T01:12:51.414Z,22.25
2023-11-08T01:15:18.629Z,25.75
2023-11-08T01:17:45.554Z,25.75
2023-11-08T01:20:12.755Z,22.00
2023-11-08T01:22:39.704Z,29.75
2023-11-08T01:25:07.340Z,25.25
2023-11-08T01:27:34.020Z,19.50
2023-11-08T01:30:02.096Z,22.50
2023-11-08T01:32:28.672Z,24.75
2023-11-08T01:34:55.271Z,14.00
2023-11-08T01:37:21.875Z,17.75
2023-11-08T01:39:48.592Z,23.00
2023-11-08T01:42:15.165Z,21.50
2023-11-08T01:44:41.782Z,16.50
2023-11-08T01:47:08.558Z,15.75
2023-11-08T01:49:35.233Z,19.00
2023-11-08T01:52:03.508Z,15.50
2023-11-08T01:54:30.285Z,14.00
2023-11-08T01:56:59.210Z,10.00
2023-11-08T01:59:27.327Z,10.25
2023-11-08T02:01:58.485Z,7.75
2023-11-08T02:04:28.401Z,12.75
2023-11-08T02:06:55.034Z,11.00
2023-11-08T02:09:21.883Z,8.00
2023-11-08T02:11:48.668Z,8.25
2023-11-08T02:14:15.386Z,7.75
2023-11-08T02:16:41.949Z,6.50
2023-11-08T02:19:09.317Z,8.00
2023-11-08T02:21:36.040Z,7.00
2023-11-08T02:24:22.138Z,7.00
2023-11-08T02:26:51.878Z,8.25
2023-11-08T02:29:21.043Z,7.00
2023-11-08T02:31:52.351Z,11.75
2023-11-08T02:34:19.318Z,3.00
2023-11-08T02:36:46.047Z,12.00
2023-11-08T02:39:13.324Z,9.25
2023-11-08T02:41:40.459Z,9.00
2023-11-08T02:44:09.696Z,14.00
2023-11-08T02:46:36.391Z,7.00
2023-11-08T02:49:03.680Z,7.75
2023-11-08T02:51:30.547Z,10.00
2023-11-08T02:54:00.413Z,10.00
2023-11-08T02:56:27.124Z,13.75
2023-11-08T02:58:54.482Z,7.75
2023-11-08T03:01:24.558Z,2.25
2023-11-08T03:03:51.590Z,5.25
2023-11-08T03:06:20.853Z,7.00
2023-11-08T03:08:48.356Z,4.50
2023-11-08T03:11:14.943Z,3.75
2023-11-08T03:13:41.597Z,8.25
2023-11-08T03:16:08.273Z,5.50
2023-11-08T03:18:34.916Z,5.75
2023-11-08T03:21:01.568Z,4.25
2023-11-08T03:23:28.579Z,6.75
2023-11-08T03:25:55.312Z,5.50
2023-11-08T03:28:21.993Z,7.00
2023-11-08T03:30:48.593Z,7.75
2023-11-08T03:33:15.597Z,4.00
2023-11-08T03:35:42.276Z,8.00
2023-11-08T03:38:08.912Z,4.75
2023-11-08T03:40:35.477Z,7.50
2023-11-08T03:43:03.464Z,8.00
2023-11-08T03:45:30.130Z,4.00
2023-11-08T03:47:56.753Z,2.00
2023-11-08T03:50:23.400Z,5.00
2023-11-08T03:52:50.259Z,3.50
2023-11-08T03:55:16.789Z,6.50
2023-11-08T03:57:43.461Z,9.75
2023-11-08T04:00:10.649Z,8.50
2023-11-08T04:02:37.299Z,4.00
2023-11-08T04:05:04.173Z,3.00
2023-11-08T04:07:32.089Z,4.50
2023-11-08T04:09:58.676Z,3.50
2023-11-08T04:12:25.308Z,2.25
2023-11-08T04:14:51.929Z,2.75
2023-11-08T04:17:20.904Z,6.00
2023-11-08T04:19:47.552Z,7.50
2023-11-08T04:22:15.494Z,4.50
2023-11-08T04:24:45.000Z,1.50
2023-11-08T04:27:12.041Z,2.25
2023-11-08T04:29:43.114Z,6.75
2023-11-08T04:32:09.773Z,8.75
2023-11-08T04:34:36.565Z,7.00
2023-11-08T04:37:07.490Z,7.75
2023-11-08T04:39:34.131Z,6.00
2023-11-08T04:42:01.474Z,5.00
2023-11-08T04:44:28.273Z,3.75
2023-11-08T04:46:54.884Z,3.00
2023-11-08T04:49:21.600Z,4.25
2023-11-08T04:51:48.325Z,5.25
2023-11-08T04:54:14.948Z,2.25
2023-11-08T04:56:42.765Z,3.00
2023-11-08T04:59:12.744Z,4.00
2023-11-08T05:01:40.328Z,7.25
2023-11-08T05:04:07.280Z,3.00
2023-11-08T05:06:34.008Z,4.00
2023-11-08T05:09:00.942Z,2.00
2023-11-08T05:11:29.189Z,4.00
2023-11-08T05:13:55.913Z,4.00
2023-11-08T05:16:23.383Z,5.00
2023-11-08T05:18:52.131Z,4.50
2023-11-08T05:21:20.062Z,9.00
2023-11-08T05:23:46.957Z,7.50
2023-11-08T05:26:13.580Z,14.00
2023-11-08T05:28:40.290Z,8.25
2023-11-08T05:31:06.873Z,12.00
2023-11-08T05:33:33.739Z,14.25
2023-11-08T05:36:00.767Z,13.00
2023-11-08T05:38:27.828Z,15.75
2023-11-08T05:40:55.048Z,13.25
2023-11-08T05:43:22.817Z,8.50
2023-11-08T05:45:49.920Z,13.50
2023-11-08T05:48:17.894Z,8.75
2023-11-08T05:50:45.354Z,14.75
2023-11-08T05:53:17.608Z,18.25
2023-11-08T05:55:44.427Z,15.25
2023-11-08T05:58:14.577Z,20.50
2023-11-08T06:00:42.177Z,22.50
2023-11-08T06:03:09.044Z,22.50
2023-11-08T06:05:35.857Z,15.25
2023-11-08T06:08:04.901Z,22.25
2023-11-08T06:10:34.118Z,18.25
2023-11-08T06:13:01.522Z,20.50
2023-11-08T06:15:28.212Z,18.75
2023-11-08T06:17:55.104Z,23.50
2023-11-08T06:20:22.859Z,18.75
2023-11-08T06:22:49.863Z,12.25
2023-11-08T06:25:16.580Z,12.75
2023-11-08T06:27:43.575Z,14.25
2023-11-08T06:30:12.715Z,19.00
2023-11-08T06:32:39.645Z,23.50
2023-11-08T06:35:07.514Z,19.00
2023-11-08T06:37:34.337Z,20.50
2023-11-08T06:40:01.056Z,16.50
2023-11-08T06:42:27.867Z,18.50
2023-11-08T06:44:54.534Z,17.00
2023-11-08T06:47:21.288Z,18.25
2023-11-08T06:49:47.989Z,21.75
2023-11-08T06:52:14.728Z,14.25
2023-11-08T06:54:42.355Z,17.25
2023-11-08T06:57:10.989Z,13.00
2023-11-08T06:59:37.868Z,20.00
2023-11-08T07:02:05.533Z,19.25
2023-11-08T07:04:32.639Z,21.00
2023-11-08T07:07:02.648Z,17.50
2023-11-08T07:09:29.583Z,17.00
2023-11-08T07:11:56.544Z,15.00
2023-11-08T07:14:23.295Z,8.75
2023-11-08T07:16:50.109Z,14.00
2023-11-08T07:19:16.922Z,21.25
2023-11-08T07:21:44.007Z,21.75
2023-11-08T07:24:11.372Z,19.50
2023-11-08T07:26:38.008Z,20.25
2023-11-08T07:29:05.764Z,19.00
2023-11-08T07:31:37.339Z,23.25
2023-11-08T07:34:06.666Z,19.50
2023-11-08T07:36:33.525Z,18.50
2023-11-08T07:39:03.641Z,23.75
2023-11-08T07:41:34.634Z,17.75
2023-11-08T07:44:01.745Z,12.00
2023-11-08T07:46:28.574Z,22.75
2023-11-08T07:48:57.258Z,20.00
2023-11-08T07:51:27.053Z,16.25
2023-11-08T07:53:58.002Z,12.75
2023-11-08T07:56:25.371Z,14.50
2023-11-08T07:58:54.188Z,12.00
2023-11-08T08:01:22.115Z,9.25
2023-11-08T08:03:49.833Z,12.00
2023-11-08T08:06:17.279Z,11.75
2023-11-08T08:08:44.981Z,8.25
2023-11-08T08:11:13.369Z,7.50
2023-11-08T08:13:40.383Z,5.50
2023-11-08T08:16:07.437Z,11.00
2023-11-08T08:18:37.646Z,10.00
2023-11-08T08:21:04.981Z,10.75
2023-11-08T08:23:31.722Z,12.50
2023-11-08T08:25:58.686Z,12.75
2023-11-08T08:28:25.702Z,16.75
2023-11-08T08:30:52.780Z,17.25
2023-11-08T08:33:19.535Z,14.50
2023-11-08T08:35:46.188Z,9.75
2023-11-08T08:38:13.072Z,12.25
2023-11-08T08:40:39.793Z,7.50
2023-11-08T08:43:06.690Z,9.25
2023-11-08T08:45:34.256Z,9.50
2023-11-08T08:48:01.557Z,12.50
2023-11-08T08:50:28.366Z,8.50
2023-11-08T08:52:55.167Z,8.75
2023-11-08T08:55:21.995Z,16.25
2023-11-08T08:57:50.377Z,14.25
2023-11-08T09:00:20.332Z,14.25
2023-11-08T09:02:50.433Z,14.00
2023-11-08T09:05:20.538Z,16.50
2023-11-08T09:07:48.348Z,14.50
2023-11-08T09:10:16.430Z,14.75
2023-11-08T09:12:44.436Z,10.50
2023-11-08T09:15:14.108Z,12.75
2023-11-08T09:17:44.802Z,9.50
2023-11-08T09:20:12.436Z,18.50
2023-11-08T09:22:42.082Z,20.00
2023-11-08T09:25:11.089Z,24.00
2023-11-08T09:27:40.289Z,23.00
2023-11-08T09:30:08.587Z,16.75
2023-11-08T09:32:36.794Z,19.50
2023-11-08T09:35:03.745Z,22.00
2023-11-08T09:37:30.543Z,22.75
2023-11-08T09:39:57.896Z,21.25
2023-11-08T09:42:28.152Z,15.00
2023-11-08T09:44:59.705Z,15.25
2023-11-08T09:47:27.160Z,13.00
2023-11-08T09:49:55.984Z,8.50
2023-11-08T09:52:23.601Z,10.00
2023-11-08T09:54:51.318Z,14.50
2023-11-08T09:57:21.257Z,11.00
2023-11-08T09:59:48.898Z,11.25
2023-11-08T10:02:17.482Z,9.00
2023-11-08T10:04:46.788Z,13.50
2023-11-08T10:07:15.533Z,12.75
2023-11-08T10:09:43.302Z,14.00
2023-11-08T10:12:10.692Z,6.75
2023-11-08T10:14:40.987Z,7.00
2023-11-08T10:17:07.808Z,8.00
2023-11-08T10:19:58.283Z,11.25
2023-11-08T10:22:26.649Z,13.75
2023-11-08T10:24:58.802Z,11.50
2023-11-08T10:27:26.573Z,9.50
2023-11-08T10:29:56.509Z,11.50
2023-11-08T10:32:26.548Z,12.75
2023-11-08T10:34:53.543Z,8.00
2023-11-08T10:37:27.795Z,8.50
2023-11-08T10:39:58.770Z,8.25
2023-11-08T10:42:28.606Z,7.00
2023-11-08T10:45:11.562Z,7.75
2023-11-08T10:47:40.458Z,7.75
2023-11-08T10:50:10.270Z,8.00
2023-11-08T10:52:41.227Z,8.00
2023-11-08T10:55:10.208Z,8.00
2023-11-08T10:57:39.171Z,7.00
2023-11-08T11:00:09.241Z,6.00
2023-11-08T11:02:58.430Z,11.25
2023-11-08T11:05:25.716Z,9.50
2023-11-08T11:07:56.257Z,2.00
2023-11-08T11:10:23.512Z,8.25
2023-11-08T11:13:17.927Z,4.25
2023-11-08T11:15:55.211Z,5.00
2023-11-08T11:18:28.783Z,5.00
2023-11-08T11:21:05.749Z,3.25
2023-11-08T11:23:36.544Z,4.00
2023-11-08T11:26:05.372Z,9.00
2023-11-08T11:28:47.330Z,4.25
2023-11-08T11:31:37.120Z,5.50
2023-11-08T11:34:26.460Z,3.00
2023-11-08T11:37:24.252Z,4.00
2023-11-08T11:39:54.029Z,5.00
2023-11-08T11:42:24.234Z,8.00
2023-11-08T11:44:58.493Z,5.25
2023-11-08T11:47:29.479Z,2.75
2023-11-08T11:50:04.146Z,5.00
2023-11-08T11:52:32.697Z,5.00
2023-11-08T11:55:00.602Z,4.75
2023-11-08T11:57:29.071Z,5.00
2023-11-08T11:59:57.475Z,4.00
2023-11-08T12:02:26.992Z,4.50
2023-11-08T12:04:54.069Z,6.25
2023-11-08T12:07:20.961Z,5.75
2023-11-08T12:09:49.598Z,5.00
2023-11-08T12:12:30.282Z,5.50
2023-11-08T12:14:58.991Z,4.00
2023-11-08T12:17:27.936Z,7.75
2023-11-08T12:19:55.706Z,7.00
2023-11-08T12:22:22.595Z,8.50
2023-11-08T12:24:50.664Z,7.00
2023-11-08T12:27:18.374Z,6.00
2023-11-08T12:29:45.815Z,4.00
2023-11-08T12:32:13.294Z,3.00
2023-11-08T12:34:41.780Z,3.75
2023-11-08T12:37:09.461Z,7.25
2023-11-08T12:39:37.045Z,5.00
2023-11-08T12:42:15.472Z,3.50
2023-11-08T12:44:48.150Z,2.25
2023-11-08T12:47:15.166Z,3.50
2023-11-08T12:49:43.371Z,3.00
2023-11-08T12:52:13.300Z,2.00
2023-11-08T12:54:40.041Z,3.00
2023-11-08T12:57:06.883Z,7.00
2023-11-08T12:59:33.837Z,5.00
2023-11-08T13:02:03.634Z,7.00
2023-11-08T13:04:30.836Z,7.25
2023-11-08T13:06:57.596Z,4.00
2023-11-08T13:09:28.026Z,3.25
2023-11-08T13:11:55.910Z,3.25
2023-11-08T13:14:24.005Z,6.00
2023-11-08T13:16:51.058Z,5.50
2023-11-08T13:19:18.164Z,4.75
2023-11-08T13:21:45.289Z,4.75
2023-11-08T13:24:13.653Z,4.25
2023-11-08T13:26:40.375Z,3.75
2023-11-08T13:29:11.659Z,4.00
2023-11-08T13:31:38.599Z,3.75
2023-11-08T13:34:07.823Z,5.25
2023-11-08T13:36:36.153Z,6.00
2023-11-08T13:39:05.381Z,3.50
2023-11-08T13:41:32.127Z,5.00
2023-11-08T13:43:59.866Z,4.75
2023-11-08T13:46:27.028Z,8.00
2023-11-08T13:48:54.699Z,8.50
2023-11-08T13:51:21.709Z,4.75
2023-11-08T13:53:48.414Z,5.00
2023-11-08T13:56:15.269Z,5.00
2023-11-08T13:58:42.051Z,9.25
2023-11-08T14:01:11.856Z,7.50
2023-11-08T14:03:39.005Z,7.75
2023-11-08T14:06:07.774Z,7.75
2023-11-08T14:08:34.950Z,8.75
2023-11-08T14:11:01.628Z,11.75
2023-11-08T14:13:28.407Z,11.00
2023-11-08T14:15:55.290Z,11.00
2023-11-08T14:18:22.129Z,7.75
2023-11-08T14:20:49.572Z,3.75
2023-11-08T14:23:16.344Z,8.00
2023-11-08T14:25:43.561Z,6.75
2023-11-08T14:28:10.796Z,6.75
2023-11-08T14:30:38.073Z,4.75
2023-11-08T14:33:05.117Z,3.00
2023-11-08T14:35:34.709Z,9.00
2023-11-08T14:38:02.631Z,9.50
2023-11-08T14:40:29.968Z,7.75
2023-11-08T14:42:56.833Z,5.75
2023-11-08T14:45:24.018Z,7.50
2023-11-08T14:47:51.875Z,7.75
2023-11-08T14:50:18.942Z,6.50
2023-11-08T14:52:45.737Z,9.50
2023-11-08T14:55:12.742Z,3.00
2023-11-08T14:57:39.443Z,3.00
2023-11-08T15:00:09.836Z,12.75
2023-11-08T15:02:37.752Z,12.75
2023-11-08T15:05:04.887Z,15.25
2023-11-08T15:09:42.203Z,17.25
2023-11-08T15:10:18.407Z,16.00
2023-11-08T15:12:46.858Z,13.50
2023-11-08T15:15:15.339Z,15.00
2023-11-08T15:17:42.697Z,8.00
2023-11-08T15:20:10.064Z,20.00
2023-11-08T15:22:36.965Z,10.75
2023-11-08T15:25:04.876Z,14.25
2023-11-08T15:27:31.564Z,13.00
2023-11-08T15:29:58.228Z,15.50
2023-11-08T15:32:24.937Z,15.00
2023-11-08T15:34:52.759Z,10.50
2023-11-08T15:37:20.850Z,9.75
2023-11-08T15:39:47.668Z,10.50
2023-11-08T15:42:15.560Z,10.50
2023-11-08T15:44:42.609Z,12.50
2023-11-08T15:47:09.527Z,15.00
2023-11-08T15:49:36.275Z,17.25
2023-11-08T15:52:04.104Z,14.00
2023-11-08T15:54:31.040Z,13.50
2023-11-08T15:56:59.101Z,17.75
2023-11-08T15:59:25.761Z,16.25
2023-11-08T16:01:53.327Z,17.50
2023-11-08T16:04:20.514Z,16.00
2023-11-08T16:06:47.397Z,11.50
2023-11-08T16:09:14.438Z,12.25
2023-11-08T16:11:41.221Z,9.25
2023-11-08T16:14:08.542Z,20.25
2023-11-08T16:16:44.902Z,19.00
2023-11-08T16:19:11.863Z,15.75
2023-11-08T16:21:38.796Z,24.75
2023-11-08T16:24:06.458Z,26.50
2023-11-08T16:26:33.973Z,29.25
2023-11-08T16:29:00.820Z,14.25
2023-11-08T16:32:32.543Z,18.00
2023-11-08T16:34:34.328Z,24.00
2023-11-08T16:37:01.584Z,13.75
2023-11-08T16:39:28.259Z,19.75
2023-11-08T16:41:54.925Z,28.75
2023-11-08T16:44:21.695Z,48.50
2023-11-08T16:46:48.378Z,68.67
2023-11-08T16:49:16.364Z,66.00
2023-11-08T16:51:46.770Z,58.67
2023-11-08T16:54:13.505Z,53.00
2023-11-08T16:56:41.405Z,40.75
2023-11-08T16:59:08.193Z,49.50
2023-11-08T17:01:34.748Z,57.50
2023-11-08T17:04:01.471Z,42.50
2023-11-08T17:06:28.169Z,47.75
2023-11-08T17:08:55.103Z,35.75
2023-11-08T17:11:21.759Z,43.25
2023-11-08T17:13:48.451Z,44.75
2023-11-08T17:16:17.159Z,37.00
2023-11-08T17:18:44.127Z,41.50
2023-11-08T17:21:10.816Z,52.75
2023-11-08T17:23:38.380Z,45.25
2023-11-08T17:26:04.961Z,36.50
2023-11-08T17:28:31.924Z,33.00
2023-11-08T17:30:58.528Z,26.75
2023-11-08T17:33:25.118Z,17.50
2023-11-08T17:35:51.711Z,20.25
2023-11-08T17:38:18.904Z,23.75
2023-11-08T17:40:45.507Z,30.00
2023-11-08T17:43:12.644Z,20.25
2023-11-08T17:45:39.372Z,20.75
2023-11-08T17:48:06.073Z,25.00
2023-11-08T17:50:32.686Z,14.25
2023-11-08T17:53:01.635Z,23.00
2023-11-08T17:55:28.373Z,20.25
2023-11-08T17:57:56.579Z,16.25
2023-11-08T18:00:31.467Z,16.00
2023-11-08T18:02:59.573Z,22.00
2023-11-08T18:05:27.228Z,36.50
2023-11-08T18:07:53.790Z,39.25
2023-11-08T18:10:22.152Z,64.33
2023-11-08T18:12:48.901Z,55.00
2023-11-08T18:15:15.764Z,38.25
2023-11-08T18:17:42.563Z,44.00
2023-11-08T18:20:09.767Z,29.75
2023-11-08T18:22:36.337Z,26.50
2023-11-08T18:25:03.046Z,31.00
2023-11-08T18:27:30.124Z,26.00
2023-11-08T18:29:57.124Z,25.75
2023-11-08T18:32:23.825Z,28.75
2023-11-08T18:34:50.505Z,22.50
2023-11-08T18:37:19.776Z,16.50
2023-11-08T18:39:47.443Z,24.00
2023-11-08T18:42:14.254Z,16.50
2023-11-08T18:44:40.914Z,19.25
2023-11-08T18:47:07.553Z,14.75
2023-11-08T18:49:35.559Z,20.50
2023-11-08T18:52:02.210Z,14.25
2023-11-08T18:54:28.865Z,14.50
2023-11-08T18:56:55.542Z,16.50
2023-11-08T19:06:50.846Z,7.00
2023-11-08T19:09:17.557Z,7.00
2023-11-08T19:11:47.375Z,8.75
2023-11-08T19:14:14.515Z,5.50
2023-11-08T19:16:41.126Z,9.00
2023-11-08T19:19:07.813Z,11.50
2023-11-08T19:21:34.494Z,7.25
2023-11-08T19:24:01.703Z,7.00
2023-11-08T19:26:29.841Z,7.25
2023-11-08T19:28:56.461Z,9.50
2023-11-08T19:31:23.086Z,17.25
2023-11-08T19:33:49.966Z,19.50
2023-11-08T19:36:17.694Z,18.50
2023-11-08T19:38:44.297Z,18.50
2023-11-08T19:41:12.985Z,16.25
2023-11-08T19:43:39.617Z,19.25
2023-11-08T19:46:11.307Z,16.25
2023-11-08T19:48:38.255Z,15.25
2023-11-08T19:51:06.617Z,12.50
2023-11-08T19:53:33.233Z,16.75
2023-11-08T19:56:00.333Z,13.75
2023-11-08T19:58:26.983Z,15.75
2023-11-08T20:00:53.691Z,12.00
2023-11-08T20:03:20.339Z,17.25
2023-11-08T20:05:48.780Z,18.00
2023-11-08T20:08:16.303Z,18.00
2023-11-08T20:10:43.571Z,16.00
2023-11-08T20:13:10.530Z,22.25
2023-11-08T20:15:38.745Z,13.00
2023-11-08T20:18:07.487Z,14.25
2023-11-08T20:20:34.148Z,18.25
2023-11-08T20:23:00.809Z,12.00
2023-11-08T20:25:27.897Z,17.00
2023-11-08T20:27:54.664Z,17.50
2023-11-08T20:30:21.528Z,1.50
2023-11-08T20:32:49.322Z,19.00
2023-11-08T20:35:16.476Z,13.25
2023-11-08T20:37:43.061Z,17.25
2023-11-08T20:40:11.099Z,16.00
2023-11-08T20:42:37.862Z,17.75
2023-11-08T20:45:04.856Z,15.75
2023-11-08T20:47:33.390Z,19.25
2023-11-08T20:50:00.191Z,18.00
2023-11-08T20:52:28.372Z,20.25
2023-11-08T20:54:55.503Z,23.25
2023-11-08T20:57:22.279Z,30.00
2023-11-08T20:59:50.435Z,20.00
2023-11-08T21:02:17.401Z,17.75
2023-11-08T21:04:44.743Z,20.00
2023-11-08T21:07:13.884Z,24.25
2023-11-08T21:09:40.975Z,22.25
2023-11-08T21:12:08.626Z,19.50
2023-11-08T21:14:35.526Z,21.50
2023-11-08T21:17:02.240Z,21.25
2023-11-08T21:19:29.048Z,17.00
2023-11-08T21:21:55.799Z,15.75
2023-11-08T21:24:22.484Z,15.75
2023-11-08T21:26:49.158Z,14.50
2023-11-08T21:29:15.775Z,19.50
2023-11-08T21:31:43.827Z,14.75
2023-11-08T21:34:10.561Z,21.25
2023-11-08T21:36:37.401Z,17.50
2023-11-08T21:39:06.279Z,13.25
2023-11-08T21:41:33.092Z,16.50
2023-11-08T21:43:59.699Z,11.75
2023-11-08T21:46:26.341Z,13.00
2023-11-08T21:48:53.058Z,13.75
2023-11-08T21:51:21.383Z,14.00
2023-11-08T21:53:48.557Z,13.25
2023-11-08T21:56:16.722Z,13.50
2023-11-08T21:58:43.300Z,14.25
2023-11-08T22:01:10.934Z,14.25
2023-11-08T22:03:39.572Z,11.75
2023-11-08T22:06:07.022Z,15.00
2023-11-08T22:08:36.528Z,7.50
2023-11-08T22:11:04.784Z,11.50
2023-11-08T22:13:31.721Z,13.25
2023-11-08T22:15:58.286Z,8.00
2023-11-08T22:18:24.917Z,9.75
2023-11-08T22:20:52.288Z,13.75
2023-11-08T22:23:19.384Z,8.50
2023-11-08T22:25:46.038Z,9.00
2023-11-08T22:28:12.661Z,6.75
2023-11-08T22:30:39.243Z,8.75
2023-11-08T22:33:07.829Z,12.00
2023-11-08T22:35:37.229Z,6.50
2023-11-08T22:38:04.203Z,6.25
2023-11-08T22:40:30.841Z,6.50
2023-11-08T22:42:57.439Z,8.50
2023-11-08T22:45:24.110Z,3.50
2023-11-08T22:47:50.759Z,10.75
2023-11-08T22:50:18.012Z,12.25
2023-11-08T22:52:45.266Z,7.00
2023-11-08T22:55:13.321Z,6.50
2023-11-08T22:57:40.958Z,6.75
2023-11-08T23:00:11.060Z,11.00
2023-11-08T23:02:40.433Z,5.50
2023-11-08T23:05:09.980Z,6.50
2023-11-08T23:07:37.176Z,6.00
2023-11-08T23:10:04.166Z,7.25
2023-11-08T23:12:30.779Z,7.75
2023-11-08T23:15:04.514Z,7.50
2023-11-08T23:17:34.347Z,8.00
2023-11-08T23:20:01.065Z,10.00
2023-11-08T23:22:27.862Z,4.00
2023-11-08T23:24:54.529Z,5.75
2023-11-08T23:27:21.125Z,4.00
2023-11-08T23:29:47.792Z,5.00
2023-11-08T23:32:14.462Z,9.00
2023-11-08T23:34:41.206Z,5.50
2023-11-08T23:37:08.146Z,6.50
2023-11-08T23:39:35.334Z,4.50
2023-11-08T23:42:02.033Z,3.50
2023-11-08T23:44:28.677Z,6.00
2023-11-08T23:46:55.549Z,7.25
2023-11-08T23:49:22.272Z,4.25
2023-11-08T23:51:48.963Z,3.50
2023-11-08T23:54:15.917Z,3.00
2023-11-08T23:56:42.602Z,1.25
2023-11-08T23:59:11.652Z,4.75
